New York, NY (10107)

8:38 AM EDT on September 01, 2014 (GMT -0400)
WCBS TELEVISION | Change Station
CLOSE
Current Station
Personal Weather Station
Location: New York, NY
Elevation: 13 ft
Nearby Weather Stations

Elev 13 ft 40.77 °N, 73.99 °W | Updated 1 second ago

Clear
Clear
77.6 °F
Feels Like 80 °F
N
0.1
Wind Variable Wind from West
Gusts 1.2 mph

Today
High -- | Low -- °F
--% Chance of Precip.
Yesterday
High -- | Low -- °F
Precip. -- in
6:22 AM 7:28 PM
Waxing Crescent, 40% visible
Pressure 30.01 in
Visibility 8.0 miles
Clouds Clear
Heat Index 80 °F
Dew Point 73 °F
Humidity 85%
Rainfall 0.00 in
Snow Depth Not available.
UV 1 out of 12
Pollen 5.00 out of 12
Ozone Good
PM2.5 Good
Flu Activity Not available.
METAR KNYC 011151Z AUTO 00000KT 8SM CLR 24/22 A3004 RMK AO2 SLP162 70062 T02440217 10250 20239 51007 $

More Conditions Fewer Conditions

Pressure 30.01 in
Visibility 8.0 miles
Clouds Clear
Heat Index 80 °F
Dew Point 73 °F
Humidity 85%
Rainfall 0.00 in
Snow Depth Not available.
UV 1 out of 12
Pollen 5.00 out of 12
Ozone Good
PM2.5 Good
Flu Activity Not available.
METAR KNYC 011151Z AUTO 00000KT 8SM CLR 24/22 A3004 RMK AO2 SLP162 70062 T02440217 10250 20239 51007 $

More Conditions Fewer Conditions

10-Day Weather Forecast

Almanac

Astronomy

Sep. 01, 2014 Rise Set
Actual Time 6:22 AM EDT 7:28 PM EDT
Civil Twilight 5:54 AM EDT 7:56 PM EDT
Nautical Twilight 5:21 AM EDT 8:29 PM EDT
Astronomical Twilight 4:46 AM EDT 9:04 PM EDT
Moon 1:08 PM EDT 11:24 PM EDT
Length of Visible Light 14h 01m
Length of Day
13h 05m
Tomorrow will be 2m 36s shorter.
Waxing Crescent, 40% of the Moon is Illuminated
Today
Waxing Crescent
Sep 2
First Quarter
Sep 8
Full
Sep 15
Last Quarter
Sep 24
New

Today's Extremes

State Highs State Lows

Community

WunderPhotos

Upload Photos

1,749,199 photos uploaded!

Nearby

Air Quality

  Air Quality AQ Index Pollutant
Yesterday Good
PM2.5
Yesterday Good
OZONE
Current Good
PM2.5
Current Good
OZONE
Monday Moderate
PM2.5
Monday Moderate
OZONE
Tuesday Moderate
OZONE
Tuesday Moderate
PM2.5

Snow Depth

Station Depth Elevation
No new snow has been reported.

Earthquake Activity

City Distance Mag. Time & Date
No recent earthquake activity has been reported nearby.
Minimum magnitude displayed is 2.5.

Coastal Water Temperatures

Place Temperature
Sandy Hook, NJ 75.9 °F
The Battery, NY 73.9 °F
Bergen Point West Reach, NJ 75.0 °F
Kings Point, NY 73.9 °F

Nearby Weather Stations